createdAt,value
2018-09-25T00:00:07.304Z,9.40
2018-09-25T00:01:07.291Z,9.58
2018-09-25T00:02:07.278Z,9.60
2018-09-25T00:03:07.266Z,9.62
2018-09-25T00:04:07.254Z,9.70
2018-09-25T00:05:07.240Z,9.68
2018-09-25T00:06:07.228Z,9.78
2018-09-25T00:07:07.215Z,9.92
2018-09-25T00:08:07.202Z,9.98
2018-09-25T00:09:07.188Z,10.06
2018-09-25T00:10:07.207Z,10.01
2018-09-25T00:11:07.164Z,10.06
2018-09-25T00:12:07.152Z,9.98
2018-09-25T00:13:07.141Z,10.04
2018-09-25T00:14:07.126Z,10.01
2018-09-25T00:15:07.114Z,10.02
2018-09-25T00:16:07.101Z,9.92
2018-09-25T00:17:07.091Z,9.96
2018-09-25T00:18:07.077Z,9.96
2018-09-25T00:19:07.063Z,10.10
2018-09-25T00:20:07.053Z,10.01
2018-09-25T00:21:07.039Z,10.02
2018-09-25T00:22:07.025Z,10.06
2018-09-25T00:23:07.012Z,9.96
2018-09-25T00:24:06.999Z,10.04
2018-09-25T00:25:06.987Z,10.04
2018-09-25T00:26:06.973Z,10.01
2018-09-25T00:27:06.961Z,10.04
2018-09-25T00:28:06.952Z,9.96
2018-09-25T00:29:06.935Z,9.99
2018-09-25T00:30:06.924Z,9.98
2018-09-25T00:31:06.910Z,9.99
2018-09-25T00:32:06.898Z,9.99
2018-09-25T00:33:06.890Z,9.92
2018-09-25T00:34:06.871Z,9.95
2018-09-25T00:35:06.859Z,9.89
2018-09-25T00:36:06.849Z,9.88
2018-09-25T00:37:06.833Z,9.81
2018-09-25T00:38:06.820Z,9.75
2018-09-25T00:39:06.808Z,9.89
2018-09-25T00:40:06.796Z,9.95
2018-09-25T00:41:06.781Z,9.98
2018-09-25T00:42:06.769Z,10.01
2018-09-25T00:43:06.759Z,9.91
2018-09-25T00:44:06.743Z,9.85
2018-09-25T00:45:06.730Z,9.92
2018-09-25T00:46:06.718Z,9.92
2018-09-25T00:47:06.749Z,9.88
2018-09-25T00:48:06.693Z,9.83
2018-09-25T00:49:06.679Z,9.75
2018-09-25T00:50:06.667Z,9.78
2018-09-25T00:51:06.654Z,9.67
2018-09-25T00:52:06.643Z,9.74
2018-09-25T00:53:06.629Z,9.75
2018-09-25T00:54:06.616Z,9.55
2018-09-25T00:55:06.603Z,9.59
2018-09-25T00:56:06.590Z,9.50
2018-09-25T00:57:06.579Z,9.56
2018-09-25T00:58:06.571Z,9.58
2018-09-25T00:59:06.553Z,9.44
2018-09-25T01:00:06.539Z,9.26
2018-09-25T01:01:06.526Z,9.26
2018-09-25T01:02:06.513Z,9.20
2018-09-25T01:03:06.502Z,9.24
2018-09-25T01:04:06.488Z,9.15
2018-09-25T01:05:06.476Z,9.16
2018-09-25T01:06:06.461Z,9.06
2018-09-25T01:07:06.449Z,9.01
2018-09-25T01:08:06.437Z,8.98
2018-09-25T01:09:06.423Z,8.93
2018-09-25T01:10:06.410Z,8.97
2018-09-25T01:11:06.398Z,8.96
2018-09-25T01:12:06.385Z,8.97
2018-09-25T01:13:06.373Z,9.16
2018-09-25T01:14:06.359Z,9.16
2018-09-25T01:15:06.346Z,9.10
2018-09-25T01:16:06.334Z,8.98
2018-09-25T01:17:06.321Z,8.91
2018-09-25T01:18:06.310Z,8.91
2018-09-25T01:19:06.299Z,8.85
2018-09-25T01:20:06.288Z,8.82
2018-09-25T01:21:06.272Z,8.71
2018-09-25T01:22:06.256Z,8.55
2018-09-25T01:23:06.244Z,8.60
2018-09-25T01:24:06.231Z,8.70
2018-09-25T01:25:06.218Z,8.71
2018-09-25T01:26:06.205Z,8.68
2018-09-25T01:27:06.193Z,8.85
2018-09-25T01:28:06.179Z,8.94
2018-09-25T01:29:06.169Z,8.94
2018-09-25T01:30:06.154Z,9.00
2018-09-25T01:31:06.140Z,9.20
2018-09-25T01:32:06.127Z,9.22
2018-09-25T01:33:06.114Z,9.16
2018-09-25T01:34:06.103Z,9.20
2018-09-25T01:35:06.089Z,9.15
2018-09-25T01:36:06.076Z,9.16
2018-09-25T01:37:06.062Z,9.23
2018-09-25T01:38:06.049Z,9.20
2018-09-25T01:39:06.037Z,9.31
2018-09-25T01:40:06.028Z,9.37
2018-09-25T01:41:06.011Z,9.31
2018-09-25T01:42:05.998Z,9.37
2018-09-25T01:43:05.985Z,9.27
2018-09-25T01:44:05.972Z,9.38
2018-09-25T01:45:05.959Z,9.45
2018-09-25T01:46:05.947Z,9.42
2018-09-25T01:47:05.933Z,9.30
2018-09-25T01:48:05.920Z,9.26
2018-09-25T01:49:05.907Z,9.41
2018-09-25T01:50:05.894Z,9.52
2018-09-25T01:51:05.882Z,9.59
2018-09-25T01:52:05.869Z,9.60
2018-09-25T01:53:05.855Z,9.60
2018-09-25T01:54:05.842Z,9.59
2018-09-25T01:55:05.831Z,9.59
2018-09-25T01:56:05.817Z,9.56
2018-09-25T01:57:05.804Z,9.49
2018-09-25T01:58:05.791Z,9.44
2018-09-25T01:59:05.778Z,9.48
2018-09-25T02:00:05.765Z,9.50
2018-09-25T02:01:05.752Z,9.55
2018-09-25T02:02:05.740Z,9.52
2018-09-25T02:03:05.730Z,9.55
2018-09-25T02:04:05.717Z,9.56
2018-09-25T02:05:05.703Z,9.55
2018-09-25T02:06:05.688Z,9.58
2018-09-25T02:07:05.675Z,9.53
2018-09-25T02:08:05.662Z,9.48
2018-09-25T02:09:05.648Z,9.48
2018-09-25T02:10:05.636Z,9.35
2018-09-25T02:11:05.623Z,9.35
2018-09-25T02:12:05.611Z,9.38
2018-09-25T02:13:05.596Z,9.35
2018-09-25T02:14:05.584Z,9.22
2018-09-25T02:15:05.572Z,9.37
2018-09-25T02:16:05.565Z,9.23
2018-09-25T02:17:05.544Z,9.24
2018-09-25T02:18:05.531Z,9.32
2018-09-25T02:19:05.518Z,9.26
2018-09-25T02:20:05.506Z,9.24
2018-09-25T02:21:05.492Z,9.27
2018-09-25T02:22:05.479Z,9.24
2018-09-25T02:23:05.466Z,9.27
2018-09-25T02:24:05.453Z,9.23
2018-09-25T02:25:05.438Z,9.31
2018-09-25T02:26:05.427Z,9.27
2018-09-25T02:27:05.414Z,9.26
2018-09-25T02:28:05.401Z,9.23
2018-09-25T02:29:05.387Z,9.24
2018-09-25T02:30:05.377Z,9.23
2018-09-25T02:31:05.361Z,9.19
2018-09-25T02:32:05.352Z,9.20
2018-09-25T02:33:05.335Z,9.22
2018-09-25T02:34:05.321Z,9.23
2018-09-25T02:35:05.309Z,9.22
2018-09-25T02:36:05.296Z,9.17
2018-09-25T02:37:05.282Z,9.20
2018-09-25T02:38:05.268Z,9.16
2018-09-25T02:39:05.257Z,9.19
2018-09-25T02:40:05.243Z,9.20
2018-09-25T02:41:05.229Z,9.24
2018-09-25T02:42:05.217Z,9.15
2018-09-25T02:43:05.202Z,9.17
2018-09-25T02:44:05.190Z,9.20
2018-09-25T02:45:05.176Z,9.22
2018-09-25T02:46:05.162Z,9.16
2018-09-25T02:47:05.149Z,9.23
2018-09-25T02:48:05.137Z,9.27
2018-09-25T02:49:05.122Z,9.22
2018-09-25T02:50:05.109Z,9.20
2018-09-25T02:51:05.114Z,9.17
2018-09-25T02:52:05.091Z,9.13
2018-09-25T02:53:05.069Z,9.12
2018-09-25T02:54:05.056Z,9.19
2018-09-25T02:55:05.044Z,9.12
2018-09-25T02:56:05.029Z,9.13
2018-09-25T02:57:05.015Z,9.16
2018-09-25T02:58:05.002Z,9.23
2018-09-25T02:59:04.988Z,9.16
2018-09-25T03:00:04.975Z,9.19
2018-09-25T03:01:04.970Z,9.13
2018-09-25T03:02:04.951Z,9.12
2018-09-25T03:03:04.934Z,9.19
2018-09-25T03:04:04.921Z,9.19
2018-09-25T03:05:04.907Z,9.24
2018-09-25T03:06:04.894Z,9.13
2018-09-25T03:07:04.880Z,9.12
2018-09-25T03:08:04.867Z,9.08
2018-09-25T03:09:04.853Z,9.10
2018-09-25T03:10:04.839Z,9.10
2018-09-25T03:11:04.828Z,9.10
2018-09-25T03:12:04.813Z,9.12
2018-09-25T03:13:04.798Z,9.03
2018-09-25T03:14:04.785Z,9.16
2018-09-25T03:15:04.772Z,9.16
2018-09-25T03:16:04.759Z,9.00
2018-09-25T03:17:04.744Z,9.13
2018-09-25T03:18:04.730Z,9.10
2018-09-25T03:19:04.719Z,9.03
2018-09-25T03:20:04.707Z,9.00
2018-09-25T03:21:04.689Z,9.12
2018-09-25T03:22:04.687Z,9.01
2018-09-25T03:23:04.666Z,9.01
2018-09-25T03:24:04.754Z,9.13
2018-09-25T03:25:04.640Z,9.13
2018-09-25T03:26:04.625Z,9.06
2018-09-25T03:27:04.609Z,9.06
2018-09-25T03:28:04.596Z,8.97
2018-09-25T03:29:04.580Z,8.97
2018-09-25T03:30:04.566Z,9.04
2018-09-25T03:31:04.555Z,8.96
2018-09-25T03:32:04.541Z,9.08
2018-09-25T03:33:04.525Z,9.06
2018-09-25T03:34:04.512Z,8.96
2018-09-25T03:35:04.500Z,8.97
2018-09-25T03:36:04.485Z,9.00
2018-09-25T03:37:04.471Z,9.03
2018-09-25T03:38:04.457Z,8.94
2018-09-25T03:39:04.444Z,8.96
2018-09-25T03:40:04.430Z,8.98
2018-09-25T03:41:04.416Z,8.96
2018-09-25T03:42:04.406Z,9.00
2018-09-25T03:43:04.390Z,8.98
2018-09-25T03:44:04.376Z,8.93
2018-09-25T03:45:04.361Z,9.00
2018-09-25T03:46:04.347Z,8.93
2018-09-25T03:47:04.334Z,8.88
2018-09-25T03:48:04.329Z,8.93
2018-09-25T03:49:04.306Z,8.91
2018-09-25T03:50:04.295Z,8.91
2018-09-25T03:51:04.279Z,8.89
2018-09-25T03:52:04.265Z,8.86
2018-09-25T03:53:04.250Z,8.93
2018-09-25T03:54:04.237Z,8.83
2018-09-25T03:55:04.224Z,8.83
2018-09-25T03:56:04.210Z,8.85
2018-09-25T03:57:04.194Z,8.76
2018-09-25T03:58:04.180Z,8.85
2018-09-25T03:59:04.168Z,8.80
2018-09-25T04:00:04.159Z,8.79
2018-09-25T04:01:04.141Z,8.82
2018-09-25T04:02:04.128Z,8.80
2018-09-25T04:03:04.113Z,8.78
2018-09-25T04:04:04.100Z,8.75
2018-09-25T04:05:04.084Z,8.71
2018-09-25T04:06:04.075Z,8.70
2018-09-25T04:07:04.058Z,8.79
2018-09-25T04:08:04.044Z,8.75
2018-09-25T04:09:04.030Z,8.71
2018-09-25T04:10:04.015Z,8.75
2018-09-25T04:11:04.002Z,8.73
2018-09-25T04:12:03.988Z,8.75
2018-09-25T04:13:03.978Z,8.73
2018-09-25T04:14:03.958Z,8.71
2018-09-25T04:15:03.947Z,8.71
2018-09-25T04:16:03.935Z,8.71
2018-09-25T04:17:03.917Z,8.75
2018-09-25T04:18:03.905Z,8.68
2018-09-25T04:19:03.890Z,8.58
2018-09-25T04:20:03.876Z,8.71
2018-09-25T04:21:03.862Z,8.70
2018-09-25T04:22:03.849Z,8.79
2018-09-25T04:23:03.834Z,8.89
2018-09-25T04:24:03.822Z,8.91
2018-09-25T04:25:03.807Z,8.86
2018-09-25T04:26:03.793Z,8.85
2018-09-25T04:27:03.779Z,8.86
2018-09-25T04:28:03.766Z,8.94
2018-09-25T04:29:03.751Z,8.85
2018-09-25T04:30:03.740Z,8.80
2018-09-25T04:31:03.724Z,8.96
2018-09-25T04:32:03.712Z,8.98
2018-09-25T04:33:03.695Z,8.96
2018-09-25T04:34:03.682Z,8.96
2018-09-25T04:35:03.668Z,9.01
2018-09-25T04:36:03.655Z,8.96
2018-09-25T04:37:03.695Z,9.01
2018-09-25T04:38:03.627Z,8.98
2018-09-25T04:39:03.613Z,8.94
2018-09-25T04:40:03.600Z,8.86
2018-09-25T04:41:03.585Z,8.96
2018-09-25T04:42:03.574Z,8.98
2018-09-25T04:43:03.559Z,8.96
2018-09-25T04:44:03.545Z,9.12
2018-09-25T04:45:03.535Z,9.06
2018-09-25T04:46:03.517Z,8.96
2018-09-25T04:47:03.551Z,9.10
2018-09-25T04:48:03.490Z,9.16
2018-09-25T04:49:03.477Z,9.12
2018-09-25T04:50:03.461Z,9.06
2018-09-25T04:51:03.449Z,8.98
2018-09-25T04:52:03.435Z,8.94
2018-09-25T04:53:03.421Z,8.88
2018-09-25T04:54:03.406Z,8.86
2018-09-25T04:55:03.394Z,8.76
2018-09-25T04:56:03.381Z,8.93
2018-09-25T04:57:03.378Z,8.85
2018-09-25T04:58:03.354Z,8.71
2018-09-25T04:59:03.340Z,8.79
2018-09-25T05:00:03.327Z,8.76
2018-09-25T05:01:03.310Z,8.68
2018-09-25T05:02:03.298Z,8.76
2018-09-25T05:03:03.286Z,8.78
2018-09-25T05:04:03.271Z,8.67
2018-09-25T05:05:03.256Z,8.68
2018-09-25T05:06:03.243Z,8.65
2018-09-25T05:07:03.230Z,8.58
2018-09-25T05:08:03.217Z,8.65
2018-09-25T05:09:03.203Z,8.70
2018-09-25T05:10:03.188Z,8.67
2018-09-25T05:11:03.175Z,8.63
2018-09-25T05:12:03.170Z,8.67
2018-09-25T05:13:03.147Z,8.58
2018-09-25T05:14:03.134Z,8.67
2018-09-25T05:15:03.123Z,8.64
2018-09-25T05:16:03.112Z,8.64
2018-09-25T05:17:03.092Z,8.57
2018-09-25T05:18:03.129Z,8.54
2018-09-25T05:19:03.066Z,8.55
2018-09-25T05:20:03.055Z,8.67
2018-09-25T05:21:03.037Z,8.73
2018-09-25T05:22:03.028Z,8.73
2018-09-25T05:23:03.010Z,8.73
2018-09-25T05:24:03.000Z,8.71
2018-09-25T05:25:02.985Z,8.63
2018-09-25T05:26:02.970Z,8.64
2018-09-25T05:27:02.956Z,8.65
2018-09-25T05:28:02.942Z,8.61
2018-09-25T05:29:02.928Z,8.68
2018-09-25T05:30:02.915Z,8.70
2018-09-25T05:31:02.901Z,8.71
2018-09-25T05:32:02.888Z,8.63
2018-09-25T05:33:02.873Z,8.63
2018-09-25T05:34:02.860Z,8.57
2018-09-25T05:35:02.848Z,8.61
2018-09-25T05:36:02.833Z,8.57
2018-09-25T05:37:02.819Z,8.54
2018-09-25T05:38:02.806Z,8.45
2018-09-25T05:39:02.796Z,8.49
2018-09-25T05:40:02.779Z,8.57
2018-09-25T05:41:02.828Z,8.61
2018-09-25T05:42:02.751Z,8.50
2018-09-25T05:43:02.738Z,8.45
2018-09-25T05:44:02.724Z,8.57
2018-09-25T05:45:02.713Z,8.50
2018-09-25T05:46:02.698Z,8.52
2018-09-25T05:47:02.684Z,8.54
2018-09-25T05:48:02.694Z,8.55
2018-09-25T05:49:02.703Z,8.45
2018-09-25T05:50:02.641Z,8.47
2018-09-25T05:51:02.627Z,8.58
2018-09-25T05:52:02.615Z,8.55
2018-09-25T05:53:02.598Z,8.57
2018-09-25T05:54:02.585Z,8.55
2018-09-25T05:55:02.571Z,8.55
2018-09-25T05:56:02.557Z,8.70
2018-09-25T05:57:02.543Z,8.57
2018-09-25T05:58:02.530Z,8.61
2018-09-25T05:59:02.517Z,8.58
2018-09-25T06:00:02.505Z,8.68
2018-09-25T06:01:02.559Z,8.64
2018-09-25T06:02:02.478Z,8.71
2018-09-25T06:03:02.465Z,8.75
2018-09-25T06:04:02.451Z,8.75
2018-09-25T06:05:02.435Z,8.67
2018-09-25T06:06:02.422Z,8.73
2018-09-25T06:07:02.411Z,8.70
2018-09-25T06:08:02.399Z,8.73
2018-09-25T06:09:02.382Z,8.71
2018-09-25T06:10:02.367Z,8.68
2018-09-25T06:11:02.355Z,8.75
2018-09-25T06:12:02.343Z,8.76
2018-09-25T06:13:02.327Z,8.73
2018-09-25T06:14:02.313Z,8.79
2018-09-25T06:15:02.308Z,8.71
2018-09-25T06:16:02.286Z,8.76
2018-09-25T06:17:02.272Z,8.79
2018-09-25T06:18:02.259Z,8.88
2018-09-25T06:19:02.246Z,8.88
2018-09-25T06:20:02.244Z,8.91
2018-09-25T06:21:02.222Z,8.83
2018-09-25T06:22:02.256Z,8.93
2018-09-25T06:23:02.226Z,8.94
2018-09-25T06:24:02.177Z,8.86
2018-09-25T06:25:02.163Z,8.96
2018-09-25T06:26:02.153Z,9.06
2018-09-25T06:27:02.136Z,9.16
2018-09-25T06:28:02.127Z,9.30
2018-09-25T06:29:02.109Z,9.32
2018-09-25T06:30:02.095Z,9.42
2018-09-25T06:31:02.081Z,9.58
2018-09-25T06:32:02.067Z,9.67
2018-09-25T06:33:02.053Z,9.74
2018-09-25T06:34:02.040Z,9.92
2018-09-25T06:35:02.113Z,10.02
2018-09-25T06:36:02.014Z,10.17
2018-09-25T06:37:02.002Z,10.25
2018-09-25T06:38:01.987Z,10.34
2018-09-25T06:39:01.976Z,10.46
2018-09-25T06:40:01.961Z,10.55
2018-09-25T06:41:02.138Z,10.70
2018-09-25T06:42:01.935Z,10.69
2018-09-25T06:43:01.920Z,10.80
2018-09-25T06:44:01.910Z,10.93
2018-09-25T06:45:01.895Z,10.98
2018-09-25T06:46:01.883Z,11.09
2018-09-25T06:47:01.871Z,11.09
2018-09-25T06:48:01.865Z,11.05
2018-09-25T06:49:01.846Z,11.05
2018-09-25T06:50:01.831Z,10.98
2018-09-25T06:51:01.819Z,10.99
2018-09-25T06:52:01.855Z,11.09
2018-09-25T06:53:01.792Z,11.05
2018-09-25T06:54:01.780Z,11.11
2018-09-25T06:55:02.014Z,11.28
2018-09-25T06:56:01.759Z,11.19
2018-09-25T06:57:01.742Z,11.31
2018-09-25T06:58:01.731Z,11.27
2018-09-25T06:59:01.718Z,11.20
2018-09-25T07:00:01.707Z,11.30
2018-09-25T07:01:01.776Z,11.36
2018-09-25T07:02:01.694Z,11.38
2018-09-25T07:03:01.674Z,11.42
2018-09-25T07:04:01.657Z,11.33
2018-09-25T07:05:01.644Z,11.30
2018-09-25T07:06:01.634Z,11.38
2018-09-25T07:07:01.620Z,11.51
2018-09-25T07:08:01.608Z,11.45
2018-09-25T07:09:01.594Z,11.44
2018-09-25T07:10:01.718Z,11.36
2018-09-25T07:11:01.572Z,11.30
2018-09-25T07:12:01.560Z,11.23
2018-09-25T07:13:01.546Z,11.36
2018-09-25T07:14:01.534Z,11.46
2018-09-25T07:15:01.526Z,11.45
2018-09-25T07:16:01.512Z,11.62
2018-09-25T07:17:01.498Z,11.79
2018-09-25T07:18:01.566Z,11.84
2018-09-25T07:19:01.475Z,11.97
2018-09-25T07:20:01.465Z,12.03
2018-09-25T07:21:01.450Z,12.08
2018-09-25T07:22:01.438Z,12.25
2018-09-25T07:23:01.427Z,12.21
2018-09-25T07:24:01.417Z,12.05
2018-09-25T07:25:01.463Z,12.15
2018-09-25T07:26:01.393Z,12.11
2018-09-25T07:27:01.380Z,12.13
2018-09-25T07:28:01.373Z,11.98
2018-09-25T07:29:01.357Z,11.85
2018-09-25T07:30:01.345Z,11.59
2018-09-25T07:31:01.386Z,11.64
2018-09-25T07:32:01.322Z,11.53
2018-09-25T07:33:01.309Z,11.46
2018-09-25T07:34:01.301Z,11.46
2018-09-25T07:35:01.286Z,11.36
2018-09-25T07:36:01.276Z,11.28
2018-09-25T07:37:01.263Z,11.38
2018-09-25T07:38:01.251Z,11.41
2018-09-25T07:39:01.240Z,11.53
2018-09-25T07:40:01.231Z,11.48
2018-09-25T07:41:01.217Z,11.64
2018-09-25T07:42:01.205Z,11.62
2018-09-25T07:43:01.193Z,11.46
2018-09-25T07:44:01.183Z,11.49
2018-09-25T07:45:01.174Z,11.48
2018-09-25T07:46:01.158Z,11.42
2018-09-25T07:47:01.145Z,11.31
2018-09-25T07:48:01.137Z,11.21
2018-09-25T07:49:01.122Z,11.21
2018-09-25T07:50:01.110Z,11.23
2018-09-25T07:51:01.099Z,11.21
2018-09-25T07:52:01.090Z,11.28
2018-09-25T07:53:01.075Z,11.33
2018-09-25T07:54:01.063Z,11.44
2018-09-25T07:55:01.051Z,11.39
2018-09-25T07:56:01.242Z,11.35
2018-09-25T07:57:01.026Z,11.48
2018-09-25T07:58:01.015Z,11.42
2018-09-25T07:59:01.002Z,11.46
2018-09-25T08:00:00.991Z,11.46
2018-09-25T08:01:00.982Z,11.51
2018-09-25T08:02:00.968Z,11.45
2018-09-25T08:03:00.972Z,11.49
2018-09-25T08:04:00.943Z,11.41
2018-09-25T08:05:00.931Z,11.46
2018-09-25T08:06:00.920Z,11.44
2018-09-25T08:07:00.907Z,11.49
2018-09-25T08:08:00.896Z,11.38
2018-09-25T08:09:00.945Z,11.48
2018-09-25T08:10:00.873Z,11.51
2018-09-25T08:11:00.861Z,11.48
2018-09-25T08:12:00.849Z,11.60
2018-09-25T08:13:00.835Z,11.63
2018-09-25T08:14:00.824Z,11.63
2018-09-25T08:15:00.815Z,11.74
2018-09-25T08:16:00.801Z,11.78
2018-09-25T08:17:00.788Z,11.72
2018-09-25T08:18:00.777Z,11.72
2018-09-25T08:19:00.766Z,11.62
2018-09-25T08:20:00.755Z,11.48
2018-09-25T08:21:00.740Z,11.62
2018-09-25T08:22:00.728Z,11.60
2018-09-25T08:23:00.717Z,11.67
2018-09-25T08:24:00.712Z,11.63
2018-09-25T08:25:00.693Z,11.62
2018-09-25T08:26:00.681Z,11.64
2018-09-25T08:27:00.670Z,11.74
2018-09-25T08:28:00.658Z,11.62
2018-09-25T08:29:00.645Z,11.74
2018-09-25T08:30:00.634Z,11.70
2018-09-25T08:31:00.622Z,11.84
2018-09-25T08:32:00.611Z,11.84
2018-09-25T08:33:00.619Z,11.87
2018-09-25T08:34:00.601Z,11.88
2018-09-25T08:35:00.623Z,11.81
2018-09-25T08:36:00.564Z,11.88
2018-09-25T08:37:00.551Z,11.84
2018-09-25T08:38:00.540Z,11.87
2018-09-25T08:39:00.620Z,11.82
2018-09-25T08:40:00.517Z,11.88
2018-09-25T08:41:00.504Z,11.90
2018-09-25T08:42:00.493Z,11.88
2018-09-25T08:43:00.481Z,11.84
2018-09-25T08:44:00.468Z,11.90
2018-09-25T08:45:00.458Z,11.88
2018-09-25T08:46:00.446Z,11.93
2018-09-25T08:47:00.434Z,12.00
2018-09-25T08:48:00.423Z,12.03
2018-09-25T08:49:00.410Z,12.07
2018-09-25T08:50:00.398Z,12.05
2018-09-25T08:51:00.385Z,12.12
2018-09-25T08:52:00.375Z,12.05
2018-09-25T08:53:00.363Z,12.11
2018-09-25T08:54:00.351Z,12.19
2018-09-25T08:55:00.340Z,12.22
2018-09-25T08:56:00.327Z,12.22
2018-09-25T08:57:00.317Z,12.23
2018-09-25T08:58:00.304Z,12.18
2018-09-25T08:59:00.293Z,12.31
2018-09-25T09:00:00.281Z,12.26
2018-09-25T09:01:00.350Z,12.38
2018-09-25T09:02:00.258Z,12.33
2018-09-25T09:03:00.246Z,12.29
2018-09-25T09:04:00.235Z,12.36
2018-09-25T09:05:00.224Z,12.31
2018-09-25T09:06:00.211Z,12.41
2018-09-25T09:07:00.199Z,12.48
2018-09-25T09:08:00.187Z,12.43
2018-09-25T09:09:00.175Z,12.56
2018-09-25T09:10:00.163Z,12.34
2018-09-25T09:11:00.153Z,12.44
2018-09-25T09:12:00.142Z,12.54
2018-09-25T09:13:00.130Z,12.56
2018-09-25T09:14:00.116Z,12.62
2018-09-25T09:15:00.106Z,12.69
2018-09-25T09:16:00.095Z,12.70
2018-09-25T09:17:00.084Z,12.88
2018-09-25T09:18:00.072Z,12.89
2018-09-25T09:19:00.060Z,12.98
2018-09-25T09:20:00.062Z,13.12
2018-09-25T09:21:00.037Z,13.16
2018-09-25T09:22:00.027Z,13.14
2018-09-25T09:23:00.015Z,13.10
2018-09-25T09:24:00.004Z,13.12
2018-09-25T09:25:00.032Z,13.17
2018-09-25T09:25:59.981Z,13.17
2018-09-25T09:26:59.970Z,13.28
2018-09-25T09:27:59.960Z,13.27
2018-09-25T09:28:59.947Z,13.36
2018-09-25T09:29:59.936Z,13.50
2018-09-25T09:30:59.926Z,13.55
2018-09-25T09:31:59.914Z,13.66
2018-09-25T09:32:59.903Z,13.62
2018-09-25T09:33:59.892Z,13.36
2018-09-25T09:34:59.882Z,13.44
2018-09-25T09:35:59.871Z,13.48
2018-09-25T09:36:59.861Z,13.51
2018-09-25T09:37:59.848Z,13.51
2018-09-25T09:38:59.838Z,13.48
2018-09-25T09:39:59.828Z,13.43
2018-09-25T09:40:59.904Z,13.44
2018-09-25T09:41:59.952Z,13.36
2018-09-25T09:42:59.795Z,13.46
2018-09-25T09:43:59.784Z,13.39
2018-09-25T09:44:59.772Z,13.46
2018-09-25T09:45:59.762Z,13.41
2018-09-25T09:46:59.752Z,13.43
2018-09-25T09:47:59.742Z,13.44
2018-09-25T09:48:59.730Z,13.54
2018-09-25T09:49:59.719Z,13.62
2018-09-25T09:50:59.710Z,13.69
2018-09-25T09:51:59.698Z,13.69
2018-09-25T09:52:59.686Z,13.79
2018-09-25T09:53:59.677Z,13.88
2018-09-25T09:54:59.666Z,13.84
2018-09-25T09:55:59.654Z,13.80
2018-09-25T09:56:59.644Z,13.79
2018-09-25T09:57:59.634Z,13.87
2018-09-25T09:58:59.625Z,13.76
2018-09-25T09:59:59.613Z,13.88
2018-09-25T10:00:59.602Z,14.01
2018-09-25T10:01:59.592Z,13.91
2018-09-25T10:02:59.583Z,14.09
2018-09-25T10:03:59.672Z,14.05
2018-09-25T10:04:59.603Z,13.93
2018-09-25T10:05:59.550Z,14.08
2018-09-25T10:06:59.579Z,14.08
2018-09-25T10:07:59.529Z,13.91
2018-09-25T10:08:59.528Z,14.11
2018-09-25T10:09:59.519Z,14.02
2018-09-25T10:10:59.507Z,14.05
2018-09-25T10:11:59.499Z,14.02
2018-09-25T10:12:59.508Z,14.24
2018-09-25T10:13:59.477Z,14.23
2018-09-25T10:14:59.467Z,14.31
2018-09-25T10:15:59.517Z,14.35
2018-09-25T10:16:59.445Z,14.34
2018-09-25T10:17:59.456Z,14.20
2018-09-25T10:18:59.551Z,14.30
2018-09-25T10:19:59.437Z,14.29
2018-09-25T10:20:59.425Z,14.23
2018-09-25T10:21:59.421Z,14.20
2018-09-25T10:22:59.405Z,14.23
2018-09-25T10:23:59.395Z,14.21
2018-09-25T10:24:59.384Z,14.30
2018-09-25T10:25:59.374Z,14.21
2018-09-25T10:26:59.364Z,14.31
2018-09-25T10:27:59.354Z,14.23
2018-09-25T10:28:59.343Z,14.38
2018-09-25T10:29:59.333Z,14.34
2018-09-25T10:30:59.324Z,14.45
2018-09-25T10:31:59.317Z,14.57
2018-09-25T10:32:59.303Z,14.56
2018-09-25T10:33:59.303Z,14.80
2018-09-25T10:34:59.283Z,14.69
2018-09-25T10:35:59.273Z,14.75
2018-09-25T10:36:59.262Z,14.75
2018-09-25T10:37:59.252Z,14.79
2018-09-25T10:38:59.244Z,14.72
2018-09-25T10:39:59.234Z,14.79
2018-09-25T10:40:59.235Z,14.67
2018-09-25T10:41:59.213Z,14.86
2018-09-25T10:42:59.205Z,14.78
2018-09-25T10:43:59.194Z,14.78
2018-09-25T10:44:59.183Z,14.80
2018-09-25T10:45:59.176Z,14.83
2018-09-25T10:46:59.164Z,14.87
2018-09-25T10:47:59.154Z,14.80
2018-09-25T10:48:59.145Z,14.80
2018-09-25T10:49:59.219Z,14.87
2018-09-25T10:50:59.124Z,14.79
2018-09-25T10:51:59.114Z,14.94
2018-09-25T10:52:59.105Z,14.98
2018-09-25T10:53:59.095Z,15.07
2018-09-25T10:54:59.084Z,15.13
2018-09-25T10:55:59.217Z,15.16
2018-09-25T10:56:59.063Z,15.04
2018-09-25T10:57:59.054Z,15.15
2018-09-25T10:58:59.052Z,15.11
2018-09-25T10:59:59.036Z,14.95
2018-09-25T11:00:59.026Z,14.94
2018-09-25T11:01:59.016Z,15.04
2018-09-25T11:02:59.115Z,15.11
2018-09-25T11:03:58.997Z,15.11
2018-09-25T11:04:58.987Z,15.13
2018-09-25T11:05:58.978Z,15.15
2018-09-25T11:06:58.968Z,15.22
2018-09-25T11:07:58.958Z,15.27
2018-09-25T11:08:58.948Z,15.20
2018-09-25T11:09:58.948Z,15.16
2018-09-25T11:10:58.931Z,15.28
2018-09-25T11:11:58.922Z,15.33
2018-09-25T11:12:58.911Z,15.35
2018-09-25T11:13:58.902Z,15.40
2018-09-25T11:14:58.893Z,15.35
2018-09-25T11:15:58.886Z,15.38
2018-09-25T11:16:58.872Z,15.52
2018-09-25T11:17:58.866Z,15.49
2018-09-25T11:18:58.854Z,15.59
2018-09-25T11:19:58.846Z,15.52
2018-09-25T11:20:58.835Z,15.56
2018-09-25T11:21:58.826Z,15.60
2018-09-25T11:22:58.815Z,15.55
2018-09-25T11:23:58.806Z,15.35
2018-09-25T11:24:58.797Z,15.56
2018-09-25T11:25:58.786Z,15.51
2018-09-25T11:26:58.777Z,15.49
2018-09-25T11:27:58.768Z,15.46
2018-09-25T11:28:58.758Z,15.48
2018-09-25T11:29:58.749Z,15.59
2018-09-25T11:30:58.740Z,15.59
2018-09-25T11:31:58.731Z,15.58
2018-09-25T11:32:58.722Z,15.64
2018-09-25T11:33:58.815Z,15.68
2018-09-25T11:34:58.704Z,15.58
2018-09-25T11:35:58.694Z,15.66
2018-09-25T11:36:58.685Z,15.76
2018-09-25T11:37:58.673Z,15.76
2018-09-25T11:38:58.667Z,15.77
2018-09-25T11:39:58.658Z,15.76
2018-09-25T11:40:58.657Z,15.89
2018-09-25T11:41:58.637Z,15.85
2018-09-25T11:42:58.628Z,15.77
2018-09-25T11:43:58.621Z,15.92
2018-09-25T11:44:58.611Z,15.95
2018-09-25T11:45:58.628Z,15.91
2018-09-25T11:46:58.716Z,15.86
2018-09-25T11:47:58.584Z,15.73
2018-09-25T11:48:58.572Z,15.70
2018-09-25T11:49:58.578Z,15.68
2018-09-25T11:50:58.555Z,15.71
2018-09-25T11:51:58.645Z,15.88
2018-09-25T11:52:58.560Z,15.95
2018-09-25T11:53:58.527Z,15.96
2018-09-25T11:54:58.518Z,15.95
2018-09-25T11:55:58.510Z,15.85
2018-09-25T11:56:58.501Z,15.95
2018-09-25T11:57:58.491Z,15.91
2018-09-25T11:58:58.481Z,15.81
2018-09-25T11:59:58.473Z,15.81
2018-09-25T12:00:58.463Z,15.70
2018-09-25T12:01:58.505Z,15.68
2018-09-25T12:02:58.447Z,15.70
2018-09-25T12:03:58.457Z,15.67
2018-09-25T12:04:58.427Z,15.71
2018-09-25T12:05:58.417Z,15.76
2018-09-25T12:06:58.409Z,15.84
2018-09-25T12:07:58.399Z,15.98
2018-09-25T12:08:58.390Z,15.99
2018-09-25T12:09:58.381Z,15.91
2018-09-25T12:10:58.373Z,15.86
2018-09-25T12:11:58.364Z,15.77
2018-09-25T12:12:58.354Z,15.84
2018-09-25T12:13:58.350Z,15.76
2018-09-25T12:14:58.337Z,15.85
2018-09-25T12:15:58.327Z,15.95
2018-09-25T12:16:58.318Z,15.98
2018-09-25T12:17:58.309Z,15.95
2018-09-25T12:18:58.300Z,15.98
2018-09-25T12:19:58.356Z,15.98
2018-09-25T12:20:58.281Z,15.93
2018-09-25T12:21:58.273Z,15.96
2018-09-25T12:22:58.264Z,16.06
2018-09-25T12:23:58.256Z,16.01
2018-09-25T12:24:58.249Z,15.95
2018-09-25T12:25:58.236Z,15.88
2018-09-25T12:26:58.228Z,15.89
2018-09-25T12:27:58.218Z,15.91
2018-09-25T12:28:58.210Z,15.95
2018-09-25T12:29:58.199Z,16.01
2018-09-25T12:30:58.191Z,15.92
2018-09-25T12:31:58.182Z,15.93
2018-09-25T12:32:58.185Z,15.95
2018-09-25T12:33:58.165Z,15.99
2018-09-25T12:34:58.155Z,16.04
2018-09-25T12:35:58.148Z,15.93
2018-09-25T12:36:58.137Z,16.01
2018-09-25T12:37:58.127Z,16.10
2018-09-25T12:38:58.118Z,15.93
2018-09-25T12:39:58.113Z,16.06
2018-09-25T12:40:58.124Z,16.03
2018-09-25T12:41:58.090Z,16.06
2018-09-25T12:42:58.083Z,16.08
2018-09-25T12:43:58.074Z,16.06
2018-09-25T12:44:58.064Z,16.08
2018-09-25T12:45:58.056Z,16.22
2018-09-25T12:46:58.045Z,16.29
2018-09-25T12:47:58.037Z,16.17
2018-09-25T12:48:58.026Z,16.25
2018-09-25T12:49:58.019Z,16.32
2018-09-25T12:50:58.010Z,16.22
2018-09-25T12:51:58.001Z,16.25
2018-09-25T12:52:57.991Z,16.14
2018-09-25T12:53:57.983Z,16.10
2018-09-25T12:54:57.974Z,16.22
2018-09-25T12:55:57.966Z,16.18
2018-09-25T12:56:57.985Z,16.27
2018-09-25T12:57:57.946Z,16.27
2018-09-25T12:58:57.939Z,16.36
2018-09-25T12:59:57.930Z,16.40
2018-09-25T13:00:57.919Z,16.34
2018-09-25T13:01:57.912Z,16.34
2018-09-25T13:02:57.905Z,16.40
2018-09-25T13:03:57.911Z,16.29